sensor_id;sensor_type;location;lat;lon;timestamp;pressure;altitude;pressure_sealevel;temperature;humidity
55687;BME280;41911;52.362;4.978;2022-11-15T00:01:31;100813.81;;;7.73;47.96
55687;BME280;41911;52.362;4.978;2022-11-15T00:02:02;100812.30;;;7.64;47.83
55687;BME280;41911;52.362;4.978;2022-11-15T00:02:33;100811.17;;;7.82;47.99
55687;BME280;41911;52.362;4.978;2022-11-15T00:03:09;100810.63;;;7.90;47.97
55687;BME280;41911;52.362;4.978;2022-11-15T00:03:40;100808.91;;;7.87;47.83
55687;BME280;41911;52.362;4.978;2022-11-15T00:04:11;100809.83;;;8.38;47.87
55687;BME280;41911;52.362;4.978;2022-11-15T00:04:42;100813.13;;;8.13;47.92
55687;BME280;41911;52.362;4.978;2022-11-15T00:05:15;100813.99;;;8.09;47.89
55687;BME280;41911;52.362;4.978;2022-11-15T00:05:46;100813.05;;;7.76;47.99
55687;BME280;41911;52.362;4.978;2022-11-15T00:06:17;100812.20;;;8.39;47.75
55687;BME280;41911;52.362;4.978;2022-11-15T00:06:48;100811.84;;;8.40;48.01
55687;BME280;41911;52.362;4.978;2022-11-15T00:07:19;100813.62;;;7.76;48.10
55687;BME280;41911;52.362;4.978;2022-11-15T00:07:50;100814.04;;;7.86;47.95
55687;BME280;41911;52.362;4.978;2022-11-15T00:08:21;100814.54;;;8.06;48.10
55687;BME280;41911;52.362;4.978;2022-11-15T00:08:52;100815.41;;;8.19;48.26
55687;BME280;41911;52.362;4.978;2022-11-15T00:09:23;100815.75;;;8.23;48.24
55687;BME280;41911;52.362;4.978;2022-11-15T00:09:54;100815.59;;;8.32;48.31
55687;BME280;41911;52.362;4.978;2022-11-15T00:10:25;100813.33;;;7.64;48.21
55687;BME280;41911;52.362;4.978;2022-11-15T00:10:57;100811.61;;;8.03;48.27
55687;BME280;41911;52.362;4.978;2022-11-15T00:11:28;100811.01;;;7.87;48.36
55687;BME280;41911;52.362;4.978;2022-11-15T00:11:59;100811.12;;;8.07;48.50
55687;BME280;41911;52.362;4.978;2022-11-15T00:12:30;100809.30;;;8.12;48.51
55687;BME280;41911;52.362;4.978;2022-11-15T00:13:04;100810.72;;;7.72;48.55
55687;BME280;41911;52.362;4.978;2022-11-15T00:13:35;100808.99;;;8.02;48.59
55687;BME280;41911;52.362;4.978;2022-11-15T00:14:06;100809.08;;;8.12;48.54
55687;BME280;41911;52.362;4.978;2022-11-15T00:14:37;100809.29;;;7.81;48.50
55687;BME280;41911;52.362;4.978;2022-11-15T00:15:09;100810.12;;;8.08;48.38
55687;BME280;41911;52.362;4.978;2022-11-15T00:15:41;100809.23;;;7.70;48.51
55687;BME280;41911;52.362;4.978;2022-11-15T00:16:12;100808.71;;;7.41;48.69
55687;BME280;41911;52.362;4.978;2022-11-15T00:16:43;100808.61;;;7.71;48.78
55687;BME280;41911;52.362;4.978;2022-11-15T00:17:16;100810.00;;;7.98;48.78
55687;BME280;41911;52.362;4.978;2022-11-15T00:17:48;100807.15;;;8.33;48.69
55687;BME280;41911;52.362;4.978;2022-11-15T00:18:19;100809.39;;;7.42;48.77
55687;BME280;41911;52.362;4.978;2022-11-15T00:18:51;100808.14;;;7.94;48.82
55687;BME280;41911;52.362;4.978;2022-11-15T00:19:22;100806.03;;;7.98;48.86
55687;BME280;41911;52.362;4.978;2022-11-15T00:19:53;100805.89;;;7.71;48.99
55687;BME280;41911;52.362;4.978;2022-11-15T00:20:23;100804.27;;;7.80;49.05
55687;BME280;41911;52.362;4.978;2022-11-15T00:20:55;100803.62;;;7.85;49.03
55687;BME280;41911;52.362;4.978;2022-11-15T00:21:26;100801.96;;;7.88;48.99
55687;BME280;41911;52.362;4.978;2022-11-15T00:21:57;100801.54;;;7.94;48.95
55687;BME280;41911;52.362;4.978;2022-11-15T00:22:32;100802.23;;;7.89;49.00
55687;BME280;41911;52.362;4.978;2022-11-15T00:23:04;100804.27;;;7.63;48.92
55687;BME280;41911;52.362;4.978;2022-11-15T00:23:35;100800.01;;;8.00;48.91
55687;BME280;41911;52.362;4.978;2022-11-15T00:24:07;100799.24;;;7.71;48.90
55687;BME280;41911;52.362;4.978;2022-11-15T00:24:38;100800.22;;;7.98;48.77
55687;BME280;41911;52.362;4.978;2022-11-15T00:25:09;100802.95;;;7.93;48.82
55687;BME280;41911;52.362;4.978;2022-11-15T00:25:40;100802.52;;;8.04;48.86
55687;BME280;41911;52.362;4.978;2022-11-15T00:26:12;100804.09;;;7.89;49.00
55687;BME280;41911;52.362;4.978;2022-11-15T00:26:44;100801.95;;;7.79;48.97
55687;BME280;41911;52.362;4.978;2022-11-15T00:27:15;100800.66;;;7.49;49.20
55687;BME280;41911;52.362;4.978;2022-11-15T00:27:46;100800.63;;;7.59;49.54
55687;BME280;41911;52.362;4.978;2022-11-15T00:28:17;100803.53;;;7.47;49.51
55687;BME280;41911;52.362;4.978;2022-11-15T00:28:48;100802.90;;;7.67;49.56
55687;BME280;41911;52.362;4.978;2022-11-15T00:29:24;100801.16;;;7.78;49.49
55687;BME280;41911;52.362;4.978;2022-11-15T00:29:55;100799.09;;;7.88;49.31
55687;BME280;41911;52.362;4.978;2022-11-15T00:30:27;100799.60;;;7.94;49.33
55687;BME280;41911;52.362;4.978;2022-11-15T00:31:01;100801.82;;;7.94;49.21
55687;BME280;41911;52.362;4.978;2022-11-15T00:31:32;100800.56;;;7.85;49.34
55687;BME280;41911;52.362;4.978;2022-11-15T00:32:03;100802.44;;;7.72;49.52
55687;BME280;41911;52.362;4.978;2022-11-15T00:32:34;100800.61;;;7.68;49.66
55687;BME280;41911;52.362;4.978;2022-11-15T00:33:06;100799.20;;;7.60;49.68
55687;BME280;41911;52.362;4.978;2022-11-15T00:33:37;100800.02;;;7.49;49.89
55687;BME280;41911;52.362;4.978;2022-11-15T00:34:09;100800.44;;;7.56;49.86
55687;BME280;41911;52.362;4.978;2022-11-15T00:34:40;100796.06;;;7.53;49.85
55687;BME280;41911;52.362;4.978;2022-11-15T00:35:11;100795.98;;;7.53;49.84
55687;BME280;41911;52.362;4.978;2022-11-15T00:35:42;100795.31;;;7.63;50.00
55687;BME280;41911;52.362;4.978;2022-11-15T00:36:13;100795.51;;;7.55;50.00
55687;BME280;41911;52.362;4.978;2022-11-15T00:36:44;100796.21;;;7.67;49.74
55687;BME280;41911;52.362;4.978;2022-11-15T00:37:15;100797.61;;;7.90;49.94
55687;BME280;41911;52.362;4.978;2022-11-15T00:37:47;100798.41;;;7.49;49.90
55687;BME280;41911;52.362;4.978;2022-11-15T00:38:18;100798.53;;;7.78;49.86
55687;BME280;41911;52.362;4.978;2022-11-15T00:38:49;100796.16;;;7.57;49.93
55687;BME280;41911;52.362;4.978;2022-11-15T00:39:20;100796.62;;;7.69;50.02
55687;BME280;41911;52.362;4.978;2022-11-15T00:39:51;100796.94;;;7.63;49.94
55687;BME280;41911;52.362;4.978;2022-11-15T00:40:22;100798.61;;;7.72;49.92
55687;BME280;41911;52.362;4.978;2022-11-15T00:40:53;100799.49;;;7.46;50.35
55687;BME280;41911;52.362;4.978;2022-11-15T00:41:24;100798.81;;;7.48;50.25
55687;BME280;41911;52.362;4.978;2022-11-15T00:41:55;100802.17;;;7.58;50.10
55687;BME280;41911;52.362;4.978;2022-11-15T00:42:26;100803.79;;;7.28;50.59
55687;BME280;41911;52.362;4.978;2022-11-15T00:42:57;100802.19;;;7.16;50.90
55687;BME280;41911;52.362;4.978;2022-11-15T00:43:28;100801.13;;;6.79;51.70
55687;BME280;41911;52.362;4.978;2022-11-15T00:43:59;100797.28;;;7.26;51.34
55687;BME280;41911;52.362;4.978;2022-11-15T00:44:30;100795.47;;;7.73;51.15
55687;BME280;41911;52.362;4.978;2022-11-15T00:45:01;100794.53;;;7.69;50.82
55687;BME280;41911;52.362;4.978;2022-11-15T00:45:33;100793.12;;;7.42;50.83
55687;BME280;41911;52.362;4.978;2022-11-15T00:46:04;100793.35;;;7.80;50.57
55687;BME280;41911;52.362;4.978;2022-11-15T00:46:35;100795.17;;;7.51;50.42
55687;BME280;41911;52.362;4.978;2022-11-15T00:47:07;100796.24;;;7.38;50.56
55687;BME280;41911;52.362;4.978;2022-11-15T00:47:38;100797.57;;;7.46;51.03
55687;BME280;41911;52.362;4.978;2022-11-15T00:48:09;100794.54;;;7.52;50.92
55687;BME280;41911;52.362;4.978;2022-11-15T00:48:40;100792.60;;;7.76;50.84
55687;BME280;41911;52.362;4.978;2022-11-15T00:49:11;100792.27;;;7.91;50.91
55687;BME280;41911;52.362;4.978;2022-11-15T00:49:42;100789.91;;;7.33;50.76
55687;BME280;41911;52.362;4.978;2022-11-15T00:50:13;100788.43;;;7.51;50.99
55687;BME280;41911;52.362;4.978;2022-11-15T00:50:44;100785.60;;;6.99;51.23
55687;BME280;41911;52.362;4.978;2022-11-15T00:51:15;100788.07;;;7.63;51.05
55687;BME280;41911;52.362;4.978;2022-11-15T00:51:46;100787.67;;;7.36;50.98
55687;BME280;41911;52.362;4.978;2022-11-15T00:52:17;100784.92;;;7.45;50.98
55687;BME280;41911;52.362;4.978;2022-11-15T00:52:48;100781.60;;;7.34;51.05
55687;BME280;41911;52.362;4.978;2022-11-15T00:53:20;100781.31;;;7.39;51.31
55687;BME280;41911;52.362;4.978;2022-11-15T00:53:51;100777.90;;;7.54;50.80
55687;BME280;41911;52.362;4.978;2022-11-15T00:54:21;100780.77;;;7.83;50.85
55687;BME280;41911;52.362;4.978;2022-11-15T00:54:52;100779.01;;;7.80;50.61
55687;BME280;41911;52.362;4.978;2022-11-15T00:55:23;100777.83;;;7.54;50.60
55687;BME280;41911;52.362;4.978;2022-11-15T00:55:54;100775.98;;;7.80;50.83
55687;BME280;41911;52.362;4.978;2022-11-15T00:56:25;100778.03;;;7.48;50.83
55687;BME280;41911;52.362;4.978;2022-11-15T00:56:58;100776.92;;;7.70;50.95
55687;BME280;41911;52.362;4.978;2022-11-15T00:57:29;100774.64;;;7.76;50.99
55687;BME280;41911;52.362;4.978;2022-11-15T00:57:59;100771.82;;;7.57;50.82
55687;BME280;41911;52.362;4.978;2022-11-15T00:58:31;100772.00;;;7.61;50.91
55687;BME280;41911;52.362;4.978;2022-11-15T00:59:02;100772.87;;;7.36;51.18
55687;BME280;41911;52.362;4.978;2022-11-15T00:59:33;100771.60;;;7.83;51.09
55687;BME280;41911;52.362;4.978;2022-11-15T01:00:05;100769.85;;;7.63;50.86
55687;BME280;41911;52.362;4.978;2022-11-15T01:00:36;100769.44;;;7.50;51.02
55687;BME280;41911;52.362;4.978;2022-11-15T01:01:09;100770.11;;;7.52;51.12
55687;BME280;41911;52.362;4.978;2022-11-15T01:01:41;100768.05;;;7.50;51.02
55687;BME280;41911;52.362;4.978;2022-11-15T01:02:12;100766.80;;;7.39;51.22
55687;BME280;41911;52.362;4.978;2022-11-15T01:02:43;100768.99;;;7.54;51.20
55687;BME280;41911;52.362;4.978;2022-11-15T01:03:13;100769.61;;;7.43;51.35
55687;BME280;41911;52.362;4.978;2022-11-15T01:03:44;100771.37;;;7.57;51.06
55687;BME280;41911;52.362;4.978;2022-11-15T01:04:15;100772.51;;;7.65;50.93
55687;BME280;41911;52.362;4.978;2022-11-15T01:04:46;100772.75;;;7.71;50.89
55687;BME280;41911;52.362;4.978;2022-11-15T01:05:17;100771.99;;;7.56;50.97
55687;BME280;41911;52.362;4.978;2022-11-15T01:05:48;100775.47;;;7.51;51.21
55687;BME280;41911;52.362;4.978;2022-11-15T01:06:19;100774.40;;;7.69;51.28
55687;BME280;41911;52.362;4.978;2022-11-15T01:06:51;100775.60;;;7.59;51.22
55687;BME280;41911;52.362;4.978;2022-11-15T01:07:22;100775.68;;;7.63;51.11
55687;BME280;41911;52.362;4.978;2022-11-15T01:07:53;100776.52;;;7.73;50.97
55687;BME280;41911;52.362;4.978;2022-11-15T01:08:24;100775.32;;;7.64;50.83
55687;BME280;41911;52.362;4.978;2022-11-15T01:08:55;100776.31;;;7.59;51.21
55687;BME280;41911;52.362;4.978;2022-11-15T01:09:26;100776.28;;;7.69;51.07
55687;BME280;41911;52.362;4.978;2022-11-15T01:09:57;100777.35;;;7.66;50.83
55687;BME280;41911;52.362;4.978;2022-11-15T01:10:28;100775.79;;;7.74;51.06
55687;BME280;41911;52.362;4.978;2022-11-15T01:11:06;100777.85;;;7.69;51.28
55687;BME280;41911;52.362;4.978;2022-11-15T01:11:37;100776.43;;;7.47;51.23
55687;BME280;41911;52.362;4.978;2022-11-15T01:12:08;100776.06;;;7.86;51.11
55687;BME280;41911;52.362;4.978;2022-11-15T01:12:40;100773.41;;;7.59;51.16
55687;BME280;41911;52.362;4.978;2022-11-15T01:13:11;100772.14;;;7.72;51.02
55687;BME280;41911;52.362;4.978;2022-11-15T01:13:42;100770.89;;;7.64;51.05
55687;BME280;41911;52.362;4.978;2022-11-15T01:14:13;100769.35;;;7.66;51.18
55687;BME280;41911;52.362;4.978;2022-11-15T01:14:44;100770.02;;;7.69;50.95
55687;BME280;41911;52.362;4.978;2022-11-15T01:15:16;100770.13;;;7.78;50.95
55687;BME280;41911;52.362;4.978;2022-11-15T01:15:47;100769.14;;;7.65;51.15
55687;BME280;41911;52.362;4.978;2022-11-15T01:16:18;100769.59;;;8.07;51.00
55687;BME280;41911;52.362;4.978;2022-11-15T01:16:49;100772.91;;;7.98;50.88
55687;BME280;41911;52.362;4.978;2022-11-15T01:17:20;100770.78;;;7.90;50.87
55687;BME280;41911;52.362;4.978;2022-11-15T01:17:51;100767.93;;;8.02;50.76
55687;BME280;41911;52.362;4.978;2022-11-15T01:18:22;100765.51;;;8.10;50.63
55687;BME280;41911;52.362;4.978;2022-11-15T01:18:54;100763.12;;;8.07;50.46
55687;BME280;41911;52.362;4.978;2022-11-15T01:19:30;100764.66;;;8.19;50.63
55687;BME280;41911;52.362;4.978;2022-11-15T01:20:02;100762.24;;;8.18;50.52
55687;BME280;41911;52.362;4.978;2022-11-15T01:20:33;100765.17;;;8.21;50.40
55687;BME280;41911;52.362;4.978;2022-11-15T01:21:10;100764.33;;;7.84;50.39
55687;BME280;41911;52.362;4.978;2022-11-15T01:21:41;100762.26;;;8.06;50.52
55687;BME280;41911;52.362;4.978;2022-11-15T01:22:12;100759.82;;;7.83;50.56
55687;BME280;41911;52.362;4.978;2022-11-15T01:22:44;100758.70;;;8.17;50.48
55687;BME280;41911;52.362;4.978;2022-11-15T01:23:14;100759.27;;;8.32;50.32
55687;BME280;41911;52.362;4.978;2022-11-15T01:23:46;100756.32;;;7.48;50.42
55687;BME280;41911;52.362;4.978;2022-11-15T01:24:17;100754.85;;;8.32;50.37
55687;BME280;41911;52.362;4.978;2022-11-15T01:24:49;100758.07;;;7.84;50.37
55687;BME280;41911;52.362;4.978;2022-11-15T01:25:20;100758.40;;;7.88;50.34
55687;BME280;41911;52.362;4.978;2022-11-15T01:25:58;100755.99;;;8.24;50.43
55687;BME280;41911;52.362;4.978;2022-11-15T01:26:29;100758.67;;;8.33;50.13
55687;BME280;41911;52.362;4.978;2022-11-15T01:27:00;100758.26;;;7.78;50.08
55687;BME280;41911;52.362;4.978;2022-11-15T01:27:31;100758.34;;;8.35;50.19
55687;BME280;41911;52.362;4.978;2022-11-15T01:28:02;100759.42;;;8.44;50.09
55687;BME280;41911;52.362;4.978;2022-11-15T01:28:36;100759.52;;;8.36;50.17
55687;BME280;41911;52.362;4.978;2022-11-15T01:29:09;100757.15;;;7.99;50.26
55687;BME280;41911;52.362;4.978;2022-11-15T01:29:40;100755.97;;;8.20;50.33
55687;BME280;41911;52.362;4.978;2022-11-15T01:30:16;100757.22;;;7.70;50.31
55687;BME280;41911;52.362;4.978;2022-11-15T01:30:47;100755.58;;;7.77;50.53
55687;BME280;41911;52.362;4.978;2022-11-15T01:31:20;100757.29;;;7.60;50.69
55687;BME280;41911;52.362;4.978;2022-11-15T01:31:52;100759.10;;;7.90;50.84
55687;BME280;41911;52.362;4.978;2022-11-15T01:32:23;100761.12;;;7.92;50.74
55687;BME280;41911;52.362;4.978;2022-11-15T01:32:54;100761.81;;;8.01;50.74
55687;BME280;41911;52.362;4.978;2022-11-15T01:33:26;100759.66;;;7.88;50.58
55687;BME280;41911;52.362;4.978;2022-11-15T01:33:56;100762.72;;;7.84;51.03
55687;BME280;41911;52.362;4.978;2022-11-15T01:34:29;100759.38;;;7.61;51.28
55687;BME280;41911;52.362;4.978;2022-11-15T01:35:05;100761.77;;;7.67;51.44
55687;BME280;41911;52.362;4.978;2022-11-15T01:35:38;100758.91;;;7.72;51.32
55687;BME280;41911;52.362;4.978;2022-11-15T01:36:12;100762.21;;;7.59;51.11
55687;BME280;41911;52.362;4.978;2022-11-15T01:36:43;100757.93;;;7.85;51.04
55687;BME280;41911;52.362;4.978;2022-11-15T01:37:14;100757.71;;;7.69;51.30
55687;BME280;41911;52.362;4.978;2022-11-15T01:37:45;100755.05;;;7.90;51.62
55687;BME280;41911;52.362;4.978;2022-11-15T01:38:16;100755.95;;;7.78;51.54
55687;BME280;41911;52.362;4.978;2022-11-15T01:38:53;100752.99;;;7.87;51.27
55687;BME280;41911;52.362;4.978;2022-11-15T01:39:24;100752.99;;;7.97;51.38
55687;BME280;41911;52.362;4.978;2022-11-15T01:39:55;100750.13;;;7.93;51.87
55687;BME280;41911;52.362;4.978;2022-11-15T01:40:26;100749.65;;;7.75;51.76
55687;BME280;41911;52.362;4.978;2022-11-15T01:40:57;100749.38;;;7.77;51.52
55687;BME280;41911;52.362;4.978;2022-11-15T01:41:30;100744.89;;;7.40;51.90
55687;BME280;41911;52.362;4.978;2022-11-15T01:42:01;100741.97;;;7.48;51.86
55687;BME280;41911;52.362;4.978;2022-11-15T01:42:32;100743.32;;;7.84;51.85
55687;BME280;41911;52.362;4.978;2022-11-15T01:43:20;100742.72;;;7.47;51.95
55687;BME280;41911;52.362;4.978;2022-11-15T01:43:53;100746.23;;;7.58;51.89
55687;BME280;41911;52.362;4.978;2022-11-15T01:44:44;100747.61;;;7.64;51.88
55687;BME280;41911;52.362;4.978;2022-11-15T01:45:18;100743.90;;;7.91;51.71
55687;BME280;41911;52.362;4.978;2022-11-15T01:45:54;100742.51;;;8.01;51.46
55687;BME280;41911;52.362;4.978;2022-11-15T01:46:32;100743.67;;;8.19;51.26
55687;BME280;41911;52.362;4.978;2022-11-15T01:47:08;100742.34;;;8.20;51.03
55687;BME280;41911;52.362;4.978;2022-11-15T01:47:41;100742.78;;;8.24;51.02
55687;BME280;41911;52.362;4.978;2022-11-15T01:48:13;100744.34;;;8.04;50.91
55687;BME280;41911;52.362;4.978;2022-11-15T01:48:45;100743.88;;;8.39;50.91
55687;BME280;41911;52.362;4.978;2022-11-15T01:49:19;100743.38;;;8.33;50.75
55687;BME280;41911;52.362;4.978;2022-11-15T01:49:55;100744.70;;;8.18;50.89
55687;BME280;41911;52.362;4.978;2022-11-15T01:50:30;100743.51;;;8.11;50.85
55687;BME280;41911;52.362;4.978;2022-11-15T01:51:09;100741.08;;;8.52;50.79
55687;BME280;41911;52.362;4.978;2022-11-15T01:51:42;100743.13;;;8.46;50.62
55687;BME280;41911;52.362;4.978;2022-11-15T01:52:16;100742.40;;;8.07;50.60
55687;BME280;41911;52.362;4.978;2022-11-15T01:52:50;100743.29;;;8.24;50.38
55687;BME280;41911;52.362;4.978;2022-11-15T01:53:23;100742.88;;;8.42;50.45
55687;BME280;41911;52.362;4.978;2022-11-15T01:53:57;100743.71;;;8.14;50.57
55687;BME280;41911;52.362;4.978;2022-11-15T01:54:31;100743.52;;;8.17;50.70
55687;BME280;41911;52.362;4.978;2022-11-15T01:55:08;100740.15;;;8.30;50.60
55687;BME280;41911;52.362;4.978;2022-11-15T01:55:40;100739.91;;;8.47;50.54
55687;BME280;41911;52.362;4.978;2022-11-15T01:56:16;100742.58;;;8.46;50.64
55687;BME280;41911;52.362;4.978;2022-11-15T01:56:50;100741.14;;;8.55;50.60
55687;BME280;41911;52.362;4.978;2022-11-15T01:57:22;100739.26;;;8.63;50.48
55687;BME280;41911;52.362;4.978;2022-11-15T01:57:56;100740.93;;;8.56;50.39
55687;BME280;41911;52.362;4.978;2022-11-15T01:58:28;100740.31;;;8.36;50.41
55687;BME280;41911;52.362;4.978;2022-11-15T01:59:04;100737.80;;;8.30;50.61
55687;BME280;41911;52.362;4.978;2022-11-15T01:59:39;100735.94;;;8.51;50.40
55687;BME280;41911;52.362;4.978;2022-11-15T02:00:13;100734.34;;;8.55;50.32
55687;BME280;41911;52.362;4.978;2022-11-15T02:00:45;100733.21;;;8.26;50.31
55687;BME280;41911;52.362;4.978;2022-11-15T02:01:16;100729.29;;;8.36;50.45
55687;BME280;41911;52.362;4.978;2022-11-15T02:01:47;100733.34;;;8.54;50.21
55687;BME280;41911;52.362;4.978;2022-11-15T02:02:18;100733.61;;;7.95;50.47
55687;BME280;41911;52.362;4.978;2022-11-15T02:02:49;100732.28;;;8.71;50.38
55687;BME280;41911;52.362;4.978;2022-11-15T02:03:23;100730.47;;;8.08;50.42
55687;BME280;41911;52.362;4.978;2022-11-15T02:04:01;100733.37;;;8.10;50.37
55687;BME280;41911;52.362;4.978;2022-11-15T02:04:40;100730.83;;;8.47;50.33
55687;BME280;41911;52.362;4.978;2022-11-15T02:05:11;100727.12;;;8.54;50.36
55687;BME280;41911;52.362;4.978;2022-11-15T02:05:43;100726.66;;;8.77;50.30
55687;BME280;41911;52.362;4.978;2022-11-15T02:06:15;100726.48;;;8.13;50.39
55687;BME280;41911;52.362;4.978;2022-11-15T02:06:47;100726.13;;;8.07;50.39
55687;BME280;41911;52.362;4.978;2022-11-15T02:07:20;100726.78;;;8.73;50.44
55687;BME280;41911;52.362;4.978;2022-11-15T02:07:54;100722.80;;;8.39;50.40
55687;BME280;41911;52.362;4.978;2022-11-15T02:08:26;100722.17;;;8.63;50.35
55687;BME280;41911;52.362;4.978;2022-11-15T02:08:57;100717.91;;;8.43;50.07
55687;BME280;41911;52.362;4.978;2022-11-15T02:09:28;100718.78;;;8.59;50.33
55687;BME280;41911;52.362;4.978;2022-11-15T02:10:06;100718.38;;;8.82;50.38
55687;BME280;41911;52.362;4.978;2022-11-15T02:10:37;100716.76;;;8.26;50.33
55687;BME280;41911;52.362;4.978;2022-11-15T02:11:09;100714.76;;;8.37;50.18
55687;BME280;41911;52.362;4.978;2022-11-15T02:11:40;100713.54;;;8.54;50.30
55687;BME280;41911;52.362;4.978;2022-11-15T02:12:13;100712.86;;;8.29;50.32
55687;BME280;41911;52.362;4.978;2022-11-15T02:12:45;100710.12;;;8.33;50.50
55687;BME280;41911;52.362;4.978;2022-11-15T02:13:17;100710.54;;;8.45;50.54
55687;BME280;41911;52.362;4.978;2022-11-15T02:13:49;100709.13;;;8.10;50.63
55687;BME280;41911;52.362;4.978;2022-11-15T02:14:20;100709.36;;;8.48;50.51
55687;BME280;41911;52.362;4.978;2022-11-15T02:14:58;100706.57;;;8.70;50.43
55687;BME280;41911;52.362;4.978;2022-11-15T02:15:36;100703.76;;;8.11;50.48
55687;BME280;41911;52.362;4.978;2022-11-15T02:16:19;100705.36;;;8.35;50.39
55687;BME280;41911;52.362;4.978;2022-11-15T02:16:59;100701.49;;;8.14;51.01
55687;BME280;41911;52.362;4.978;2022-11-15T02:17:48;100704.04;;;7.98;50.89
55687;BME280;41911;52.362;4.978;2022-11-15T02:18:31;100699.68;;;8.39;50.90
55687;BME280;41911;52.362;4.978;2022-11-15T02:19:21;100701.70;;;8.82;50.66
55687;BME280;41911;52.362;4.978;2022-11-15T02:21:21;100702.32;;;8.61;50.70
55687;BME280;41911;52.362;4.978;2022-11-15T02:22:10;100698.05;;;8.23;51.14
55687;BME280;41911;52.362;4.978;2022-11-15T02:23:01;100695.43;;;8.16;51.55
55687;BME280;41911;52.362;4.978;2022-11-15T02:24:06;100695.98;;;8.47;51.53
55687;BME280;41911;52.362;4.978;2022-11-15T02:25:01;100692.81;;;8.32;51.75
55687;BME280;41911;52.362;4.978;2022-11-15T02:25:40;100691.24;;;8.49;51.53
55687;BME280;41911;52.362;4.978;2022-11-15T02:26:51;100692.06;;;8.45;51.60
55687;BME280;41911;52.362;4.978;2022-11-15T02:28:16;100689.35;;;8.32;51.45
55687;BME280;41911;52.362;4.978;2022-11-15T02:29:00;100685.37;;;8.21;51.47
55687;BME280;41911;52.362;4.978;2022-11-15T02:29:48;100684.67;;;8.50;51.21
55687;BME280;41911;52.362;4.978;2022-11-15T02:30:34;100680.85;;;8.12;51.15
55687;BME280;41911;52.362;4.978;2022-11-15T02:31:11;100680.17;;;8.14;51.40
55687;BME280;41911;52.362;4.978;2022-11-15T02:31:49;100678.02;;;8.64;51.39
55687;BME280;41911;52.362;4.978;2022-11-15T02:32:30;100678.10;;;8.29;51.26
55687;BME280;41911;52.362;4.978;2022-11-15T02:33:13;100681.24;;;8.10;51.40
55687;BME280;41911;52.362;4.978;2022-11-15T02:33:57;100683.63;;;8.48;51.38
55687;BME280;41911;52.362;4.978;2022-11-15T02:34:39;100679.23;;;8.53;51.38
55687;BME280;41911;52.362;4.978;2022-11-15T02:35:22;100681.00;;;8.46;51.42
55687;BME280;41911;52.362;4.978;2022-11-15T02:35:59;100676.87;;;8.58;51.57
55687;BME280;41911;52.362;4.978;2022-11-15T02:36:39;100673.32;;;8.98;51.35
55687;BME280;41911;52.362;4.978;2022-11-15T02:37:18;100676.32;;;8.54;51.42
55687;BME280;41911;52.362;4.978;2022-11-15T02:37:57;100672.56;;;8.45;51.49
55687;BME280;41911;52.362;4.978;2022-11-15T02:38:34;100672.86;;;8.42;51.38
55687;BME280;41911;52.362;4.978;2022-11-15T02:39:16;100672.98;;;8.60;51.36
55687;BME280;41911;52.362;4.978;2022-11-15T02:39:54;100669.91;;;8.35;51.40
55687;BME280;41911;52.362;4.978;2022-11-15T02:40:39;100668.57;;;8.44;51.09
55687;BME280;41911;52.362;4.978;2022-11-15T02:41:17;100667.42;;;8.31;51.14
55687;BME280;41911;52.362;4.978;2022-11-15T02:41:56;100665.53;;;8.93;51.26
55687;BME280;41911;52.362;4.978;2022-11-15T02:42:33;100666.25;;;8.47;51.20
55687;BME280;41911;52.362;4.978;2022-11-15T02:43:10;100665.70;;;9.09;50.88
55687;BME280;41911;52.362;4.978;2022-11-15T02:43:53;100665.46;;;8.81;50.91
55687;BME280;41911;52.362;4.978;2022-11-15T02:44:35;100662.49;;;8.54;50.99
55687;BME280;41911;52.362;4.978;2022-11-15T02:45:13;100661.62;;;9.06;50.96
55687;BME280;41911;52.362;4.978;2022-11-15T02:45:53;100661.04;;;8.59;50.95
55687;BME280;41911;52.362;4.978;2022-11-15T02:46:35;100659.62;;;8.86;51.24
55687;BME280;41911;52.362;4.978;2022-11-15T02:47:14;100659.98;;;8.51;51.35
55687;BME280;41911;52.362;4.978;2022-11-15T02:47:50;100657.44;;;8.49;51.32
55687;BME280;41911;52.362;4.978;2022-11-15T02:48:23;100655.96;;;8.27;51.56
55687;BME280;41911;52.362;4.978;2022-11-15T02:48:55;100655.44;;;8.44;51.56
55687;BME280;41911;52.362;4.978;2022-11-15T02:49:30;100655.87;;;8.53;51.58
55687;BME280;41911;52.362;4.978;2022-11-15T02:50:09;100656.65;;;8.57;51.43
55687;BME280;41911;52.362;4.978;2022-11-15T02:50:42;100654.21;;;8.56;51.43
55687;BME280;41911;52.362;4.978;2022-11-15T02:51:14;100654.23;;;8.70;51.42
55687;BME280;41911;52.362;4.978;2022-11-15T02:51:48;100649.37;;;8.43;51.69
55687;BME280;41911;52.362;4.978;2022-11-15T02:52:21;100652.41;;;8.32;52.02
55687;BME280;41911;52.362;4.978;2022-11-15T02:52:53;100655.36;;;8.49;51.98
55687;BME280;41911;52.362;4.978;2022-11-15T02:53:25;100652.61;;;8.38;51.52
55687;BME280;41911;52.362;4.978;2022-11-15T02:53:56;100651.42;;;8.44;51.71
55687;BME280;41911;52.362;4.978;2022-11-15T02:54:30;100649.78;;;8.37;51.75
55687;BME280;41911;52.362;4.978;2022-11-15T02:55:02;100650.29;;;8.72;51.67
55687;BME280;41911;52.362;4.978;2022-11-15T02:55:35;100652.01;;;8.44;51.52
55687;BME280;41911;52.362;4.978;2022-11-15T02:56:09;100650.71;;;8.44;51.41
55687;BME280;41911;52.362;4.978;2022-11-15T02:56:43;100649.96;;;8.81;51.97
55687;BME280;41911;52.362;4.978;2022-11-15T02:57:17;100651.34;;;8.43;51.86
55687;BME280;41911;52.362;4.978;2022-11-15T02:58:03;100646.50;;;8.30;51.94
55687;BME280;41911;52.362;4.978;2022-11-15T02:58:54;100646.25;;;8.28;52.18
55687;BME280;41911;52.362;4.978;2022-11-15T03:00:09;100643.54;;;8.50;51.71
55687;BME280;41911;52.362;4.978;2022-11-15T03:00:49;100641.55;;;8.38;52.09
55687;BME280;41911;52.362;4.978;2022-11-15T03:01:35;100643.52;;;8.85;51.79
55687;BME280;41911;52.362;4.978;2022-11-15T03:02:20;100641.59;;;8.23;51.93
55687;BME280;41911;52.362;4.978;2022-11-15T03:03:24;100640.97;;;8.60;51.84
55687;BME280;41911;52.362;4.978;2022-11-15T03:04:05;100639.06;;;9.29;51.99